BAW15 WSSS-YSSY
Flight info
| Callsign | BAW15 |
|---|---|
| Flight time | N/A |
| Altitude | 35000 |
| Route | IDBUD1B IDBUD T24 SURGA M635 MASRI/N0480F370 M635 ATMAP A576 TATUK/N0478F390 A576 APOMA Y52 VELGI Y105 TARAL Y59 RIVET RIVET4 |
| Aircraft | B77L/H-SDE1E2E3FGHIJ2J3J4J5M1RWXY/LB1D1 |
Departure
| Time | 2026-05-04 01:42 |
|---|---|
| Airport | Singapore Changi Airport (WSSS) |
Arrival
| Time | N/A |
|---|---|
| Airport | Sydney Kingsford Smith International Airport (YSSY) |
| Time | Latitude | Longitude | Altitude | Speed | Heading |
|---|---|---|---|---|---|
| 2026-05-04 01:06 | 1.35509 | 103.99214 | 29 ft | 0 kts | 11° |
| 2026-05-04 01:30 | 1.35499 | 103.99212 | 29 ft | 2 kts | 12° |
| 2026-05-04 01:30 | 1.35483 | 103.99208 | 29 ft | 2 kts | 14° |
| 2026-05-04 01:31 | 1.35467 | 103.99204 | 27 ft | 2 kts | 17° |
| 2026-05-04 01:31 | 1.35452 | 103.99199 | 26 ft | 2 kts | 22° |
| 2026-05-04 01:31 | 1.35437 | 103.99192 | 26 ft | 2 kts | 34° |
| 2026-05-04 01:31 | 1.35425 | 103.99181 | 27 ft | 2 kts | 63° |
| 2026-05-04 01:32 | 1.35422 | 103.99165 | 27 ft | 2 kts | 106° |
| 2026-05-04 01:32 | 1.35424 | 103.99159 | 27 ft | 0 kts | 114° |
| 2026-05-04 01:32 | 1.35424 | 103.99158 | 27 ft | 0 kts | 114° |
| 2026-05-04 01:37 | 1.35418 | 103.99171 | 27 ft | 6 kts | 114° |
| 2026-05-04 01:37 | 1.35408 | 103.99221 | 7 ft | 8 kts | 77° |
| 2026-05-04 01:38 | 1.35435 | 103.99275 | 30 ft | 9 kts | 57° |
| 2026-05-04 01:38 | 1.35474 | 103.99329 | 30 ft | 10 kts | 52° |
| 2026-05-04 01:38 | 1.35522 | 103.99389 | 30 ft | 12 kts | 50° |
| 2026-05-04 01:38 | 1.35581 | 103.99440 | 31 ft | 12 kts | 30° |
| 2026-05-04 01:39 | 1.35659 | 103.99476 | 31 ft | 13 kts | 22° |
| 2026-05-04 01:39 | 1.35749 | 103.99513 | 30 ft | 15 kts | 22° |
| 2026-05-04 01:39 | 1.35852 | 103.99556 | 30 ft | 17 kts | 23° |
| 2026-05-04 01:39 | 1.35954 | 103.99600 | 30 ft | 17 kts | 23° |
| 2026-05-04 01:40 | 1.36066 | 103.99647 | 30 ft | 18 kts | 22° |
| 2026-05-04 01:40 | 1.36187 | 103.99698 | 30 ft | 19 kts | 23° |
| 2026-05-04 01:40 | 1.36236 | 103.99788 | 31 ft | 17 kts | 107° |
| 2026-05-04 01:40 | 1.36162 | 103.99874 | 31 ft | 17 kts | 168° |
| 2026-05-04 01:41 | 1.36100 | 103.99860 | 31 ft | 0 kts | 207° |
| 2026-05-04 01:41 | 1.36092 | 103.99855 | 31 ft | 9 kts | 207° |
| 2026-05-04 01:42 | 1.35797 | 103.99727 | 34 ft | 98 kts | 203° |
| 2026-05-04 01:42 | 1.34823 | 103.99315 | 93 ft | 200 kts | 202° |
| 2026-05-04 01:42 | 1.33497 | 103.98758 | 1127 ft | 203 kts | 202° |
| 2026-05-04 01:42 | 1.32200 | 103.98241 | 2335 ft | 207 kts | 201° |
| 2026-05-04 01:43 | 1.30722 | 103.97692 | 2524 ft | 247 kts | 199° |
| 2026-05-04 01:43 | 1.28988 | 103.97160 | 3039 ft | 270 kts | 196° |
| 2026-05-04 01:43 | 1.27166 | 103.96613 | 4027 ft | 273 kts | 199° |
| 2026-05-04 01:43 | 1.25405 | 103.95911 | 5006 ft | 269 kts | 203° |
| 2026-05-04 01:44 | 1.23688 | 103.95240 | 6184 ft | 258 kts | 198° |
| 2026-05-04 01:44 | 1.22002 | 103.94857 | 7507 ft | 240 kts | 185° |
| 2026-05-04 01:44 | 1.20357 | 103.94965 | 8472 ft | 238 kts | 162° |
| 2026-05-04 01:44 | 1.18925 | 103.95801 | 9135 ft | 247 kts | 130° |
| 2026-05-04 01:45 | 1.17740 | 103.97063 | 9745 ft | 251 kts | 145° |
| 2026-05-04 01:45 | 1.16137 | 103.97830 | 10154 ft | 271 kts | 169° |
| 2026-05-04 01:45 | 1.12029 | 103.98094 | 9752 ft | 306 kts | 170° |
| 2026-05-04 01:46 | 1.10088 | 103.98829 | 9811 ft | 299 kts | 145° |
| 2026-05-04 01:46 | 1.08571 | 104.00258 | 10361 ft | 298 kts | 133° |
| 2026-05-04 01:46 | 1.07113 | 104.01806 | 10694 ft | 324 kts | 133° |
| 2026-05-04 01:46 | 1.05482 | 104.03508 | 10879 ft | 354 kts | 134° |
| 2026-05-04 01:47 | 1.03728 | 104.05333 | 11373 ft | 371 kts | 134° |
| 2026-05-04 01:47 | 1.01920 | 104.07214 | 12137 ft | 379 kts | 133° |
| 2026-05-04 01:47 | 1.00081 | 104.09129 | 13018 ft | 384 kts | 133° |
| 2026-05-04 01:47 | 0.98224 | 104.11061 | 13911 ft | 387 kts | 133° |
| 2026-05-04 01:48 | 0.96351 | 104.13011 | 14702 ft | 391 kts | 133° |
| 2026-05-04 01:48 | 0.94459 | 104.14980 | 15460 ft | 395 kts | 133° |
| 2026-05-04 01:48 | 0.92549 | 104.16968 | 16206 ft | 399 kts | 133° |
| 2026-05-04 01:48 | 0.90617 | 104.18979 | 16959 ft | 403 kts | 133° |
| 2026-05-04 01:49 | 0.88667 | 104.21008 | 17694 ft | 407 kts | 133° |
| 2026-05-04 01:49 | 0.86698 | 104.23057 | 18391 ft | 411 kts | 132° |
| 2026-05-04 01:49 | 0.84709 | 104.25127 | 19001 ft | 415 kts | 132° |
| 2026-05-04 01:49 | 0.82703 | 104.27215 | 19601 ft | 419 kts | 132° |
| 2026-05-04 01:50 | 0.80676 | 104.29324 | 20177 ft | 423 kts | 133° |
| 2026-05-04 01:50 | 0.78628 | 104.31455 | 20772 ft | 427 kts | 133° |
| 2026-05-04 01:50 | 0.76562 | 104.33604 | 21347 ft | 431 kts | 133° |
| 2026-05-04 01:50 | 0.74476 | 104.35775 | 21917 ft | 435 kts | 133° |
| 2026-05-04 01:51 | 0.72371 | 104.37964 | 22476 ft | 439 kts | 133° |
| 2026-05-04 01:51 | 0.70249 | 104.40173 | 23033 ft | 443 kts | 133° |
| 2026-05-04 01:51 | 0.68108 | 104.42400 | 23554 ft | 446 kts | 133° |
| 2026-05-04 01:51 | 0.65948 | 104.44647 | 24008 ft | 450 kts | 133° |
| 2026-05-04 01:52 | 0.63776 | 104.46907 | 24467 ft | 452 kts | 133° |
| 2026-05-04 01:52 | 0.61590 | 104.49181 | 24951 ft | 455 kts | 133° |
| 2026-05-04 01:52 | 0.59392 | 104.51468 | 25383 ft | 458 kts | 133° |
| 2026-05-04 01:52 | 0.57181 | 104.53769 | 25833 ft | 461 kts | 133° |
| 2026-05-04 01:53 | 0.54954 | 104.56086 | 26261 ft | 464 kts | 133° |
| 2026-05-04 01:53 | 0.52714 | 104.58417 | 26678 ft | 467 kts | 133° |
| 2026-05-04 01:53 | 0.50458 | 104.60763 | 27094 ft | 470 kts | 133° |
| 2026-05-04 01:53 | 0.48234 | 104.63168 | 27517 ft | 472 kts | 129° |
| 2026-05-04 01:54 | 0.46222 | 104.65766 | 27939 ft | 475 kts | 124° |
| 2026-05-04 01:54 | 0.44476 | 104.68574 | 28342 ft | 477 kts | 119° |
| 2026-05-04 01:54 | 0.42839 | 104.71468 | 28730 ft | 480 kts | 119° |
| 2026-05-04 01:54 | 0.41190 | 104.74380 | 29112 ft | 483 kts | 119° |
| 2026-05-04 01:55 | 0.39547 | 104.77264 | 29480 ft | 486 kts | 119° |
| 2026-05-04 01:55 | 0.37862 | 104.80202 | 29843 ft | 489 kts | 120° |
| 2026-05-04 01:55 | 0.36163 | 104.83148 | 30181 ft | 491 kts | 120° |
| 2026-05-04 01:55 | 0.34455 | 104.86102 | 30574 ft | 490 kts | 120° |
| 2026-05-04 01:56 | 0.32752 | 104.89044 | 31052 ft | 488 kts | 120° |
| 2026-05-04 01:56 | 0.31056 | 104.91975 | 31534 ft | 487 kts | 120° |
| 2026-05-04 01:56 | 0.29365 | 104.94899 | 32025 ft | 485 kts | 120° |
| 2026-05-04 01:56 | 0.27682 | 104.97812 | 32497 ft | 483 kts | 120° |
| 2026-05-04 01:57 | 0.26003 | 105.00716 | 32985 ft | 482 kts | 120° |
| 2026-05-04 01:57 | 0.24327 | 105.03615 | 33455 ft | 481 kts | 120° |
| 2026-05-04 01:57 | 0.22660 | 105.06497 | 33927 ft | 480 kts | 120° |
| 2026-05-04 01:57 | 0.20986 | 105.09388 | 34332 ft | 479 kts | 120° |
| 2026-05-04 01:58 | 0.19318 | 105.12271 | 34684 ft | 479 kts | 120° |
| 2026-05-04 01:58 | 0.17649 | 105.15156 | 34970 ft | 481 kts | 120° |
| 2026-05-04 01:58 | 0.14283 | 105.20975 | 34949 ft | 483 kts | 120° |
| 2026-05-04 01:59 | 0.10941 | 105.26753 | 34951 ft | 478 kts | 120° |
| 2026-05-04 01:59 | 0.07620 | 105.32496 | 34951 ft | 477 kts | 120° |
| 2026-05-04 02:00 | 0.04303 | 105.38231 | 34949 ft | 476 kts | 120° |
| 2026-05-04 02:00 | 0.00989 | 105.43961 | 34952 ft | 476 kts | 119° |
| 2026-05-04 02:01 | -0.02325 | 105.49691 | 34951 ft | 477 kts | 119° |
| 2026-05-04 02:01 | -0.05641 | 105.55426 | 34948 ft | 477 kts | 119° |
| 2026-05-04 02:02 | -0.08962 | 105.61167 | 34949 ft | 477 kts | 119° |
| 2026-05-04 02:02 | -0.12282 | 105.66909 | 34951 ft | 477 kts | 120° |
| 2026-05-04 02:03 | -0.15581 | 105.72613 | 34948 ft | 477 kts | 120° |
| 2026-05-04 02:03 | -0.18901 | 105.78353 | 34949 ft | 477 kts | 120° |
| 2026-05-04 02:04 | -0.22221 | 105.84093 | 34948 ft | 477 kts | 120° |
| 2026-05-04 02:04 | -0.25538 | 105.89829 | 34948 ft | 477 kts | 120° |
| 2026-05-04 02:05 | -0.28854 | 105.95564 | 34948 ft | 477 kts | 120° |
| 2026-05-04 02:05 | -0.32169 | 106.01296 | 34947 ft | 476 kts | 120° |
| 2026-05-04 02:06 | -0.34924 | 106.06060 | 34947 ft | 476 kts | 120° |
| 2026-05-04 02:06 | -0.38259 | 106.11827 | 34951 ft | 476 kts | 120° |
| 2026-05-04 02:07 | -0.41544 | 106.17507 | 34945 ft | 475 kts | 120° |
| 2026-05-04 02:07 | -0.44872 | 106.23263 | 34946 ft | 475 kts | 120° |
| 2026-05-04 02:08 | -0.48151 | 106.28935 | 34945 ft | 474 kts | 120° |
| 2026-05-04 02:08 | -0.51452 | 106.34643 | 34945 ft | 474 kts | 120° |
| 2026-05-04 02:09 | -0.54751 | 106.40350 | 34946 ft | 474 kts | 120° |
| 2026-05-04 02:09 | -0.58051 | 106.46058 | 34949 ft | 474 kts | 120° |
| 2026-05-04 02:10 | -0.61432 | 106.51723 | 34952 ft | 475 kts | 124° |
| 2026-05-04 02:10 | -0.65604 | 106.56833 | 34955 ft | 475 kts | 131° |
| 2026-05-04 02:11 | -0.70034 | 106.61738 | 34951 ft | 476 kts | 131° |
| 2026-05-04 02:11 | -0.74451 | 106.66666 | 34952 ft | 476 kts | 131° |
| 2026-05-04 02:12 | -0.78849 | 106.71609 | 34949 ft | 476 kts | 131° |
| 2026-05-04 02:12 | -0.83243 | 106.76560 | 34950 ft | 476 kts | 131° |
| 2026-05-04 02:13 | -0.87636 | 106.81510 | 34951 ft | 476 kts | 131° |
| 2026-05-04 02:13 | -0.92027 | 106.86456 | 34939 ft | 476 kts | 131° |
| 2026-05-04 02:14 | -0.96418 | 106.91401 | 34951 ft | 475 kts | 131° |
| 2026-05-04 02:14 | -1.00807 | 106.96345 | 34952 ft | 475 kts | 131° |
| 2026-05-04 02:15 | -1.05192 | 107.01284 | 34950 ft | 475 kts | 131° |
| 2026-05-04 02:15 | -1.09579 | 107.06226 | 34954 ft | 475 kts | 131° |
| 2026-05-04 02:16 | -1.13934 | 107.11131 | 34951 ft | 475 kts | 131° |
| 2026-05-04 02:16 | -1.18314 | 107.16066 | 34951 ft | 474 kts | 131° |
| 2026-05-04 02:17 | -1.22692 | 107.20999 | 34950 ft | 474 kts | 131° |
| 2026-05-04 02:17 | -1.27071 | 107.25933 | 34952 ft | 474 kts | 131° |
| 2026-05-04 02:18 | -1.31445 | 107.30862 | 34951 ft | 474 kts | 131° |
| 2026-05-04 02:18 | -1.35822 | 107.35796 | 34953 ft | 474 kts | 131° |
| 2026-05-04 02:19 | -1.40166 | 107.40753 | 34950 ft | 474 kts | 130° |
| 2026-05-04 02:19 | -1.44458 | 107.45748 | 34933 ft | 474 kts | 130° |
| 2026-05-04 02:20 | -1.48748 | 107.50744 | 34950 ft | 473 kts | 130° |
| 2026-05-04 02:20 | -1.53042 | 107.55732 | 34951 ft | 473 kts | 130° |
| 2026-05-04 02:21 | -1.57341 | 107.60718 | 34948 ft | 473 kts | 130° |
| 2026-05-04 02:21 | -1.61639 | 107.65704 | 34948 ft | 473 kts | 130° |
| 2026-05-04 02:22 | -1.65938 | 107.70692 | 34951 ft | 474 kts | 130° |
| 2026-05-04 02:22 | -1.70237 | 107.75680 | 34952 ft | 474 kts | 130° |
| 2026-05-04 02:23 | -1.74540 | 107.80673 | 34948 ft | 474 kts | 130° |
| 2026-05-04 02:23 | -1.78843 | 107.85666 | 34947 ft | 474 kts | 130° |
| 2026-05-04 02:24 | -1.83115 | 107.90624 | 34929 ft | 474 kts | 130° |
| 2026-05-04 02:24 | -1.87425 | 107.95627 | 34951 ft | 475 kts | 130° |
| 2026-05-04 02:25 | -1.91747 | 108.00645 | 34947 ft | 477 kts | 130° |
| 2026-05-04 02:25 | -1.96075 | 108.05669 | 34946 ft | 477 kts | 130° |
| 2026-05-04 02:26 | -2.00408 | 108.10701 | 34948 ft | 478 kts | 130° |
| 2026-05-04 02:26 | -2.04747 | 108.15739 | 34949 ft | 478 kts | 130° |
| 2026-05-04 02:27 | -2.09089 | 108.20772 | 34946 ft | 478 kts | 130° |
| 2026-05-04 02:27 | -2.13434 | 108.25802 | 34945 ft | 478 kts | 130° |
| 2026-05-04 02:28 | -2.17773 | 108.30827 | 34946 ft | 477 kts | 129° |
| 2026-05-04 02:28 | -2.22111 | 108.35854 | 34947 ft | 477 kts | 129° |
| 2026-05-04 02:29 | -2.26449 | 108.40883 | 34947 ft | 478 kts | 129° |
| 2026-05-04 02:29 | -2.30792 | 108.45917 | 34946 ft | 478 kts | 130° |
| 2026-05-04 02:30 | -2.35134 | 108.50950 | 34949 ft | 478 kts | 130° |
| 2026-05-04 02:30 | -2.39480 | 108.55989 | 34948 ft | 478 kts | 130° |
| 2026-05-04 02:31 | -2.43826 | 108.61029 | 34947 ft | 479 kts | 130° |
| 2026-05-04 02:31 | -2.48176 | 108.66073 | 34945 ft | 479 kts | 130° |
| 2026-05-04 02:32 | -2.52502 | 108.71077 | 34947 ft | 479 kts | 130° |
| 2026-05-04 02:32 | -2.56874 | 108.76123 | 35086 ft | 483 kts | 130° |
| 2026-05-04 02:33 | -2.59074 | 108.78662 | 35442 ft | 482 kts | 130° |
| 2026-05-04 02:33 | -2.61266 | 108.81192 | 35841 ft | 480 kts | 130° |
| 2026-05-04 02:33 | -2.63448 | 108.83714 | 36284 ft | 478 kts | 130° |
| 2026-05-04 02:33 | -2.65617 | 108.86219 | 36723 ft | 475 kts | 130° |
| 2026-05-04 02:34 | -2.67783 | 108.88722 | 36984 ft | 477 kts | 130° |
| 2026-05-04 02:34 | -2.69962 | 108.91241 | 36929 ft | 480 kts | 130° |
| 2026-05-04 02:34 | -2.74317 | 108.96274 | 36931 ft | 476 kts | 130° |
| 2026-05-04 02:35 | -2.78631 | 109.01260 | 36933 ft | 473 kts | 130° |
| 2026-05-04 02:35 | -2.82926 | 109.06227 | 36948 ft | 472 kts | 130° |
| 2026-05-04 02:36 | -2.87217 | 109.11189 | 36949 ft | 471 kts | 130° |
| 2026-05-04 02:36 | -2.91508 | 109.16155 | 36944 ft | 472 kts | 130° |
| 2026-05-04 02:37 | -2.95798 | 109.21140 | 36946 ft | 473 kts | 130° |
| 2026-05-04 02:37 | -3.00096 | 109.26139 | 36949 ft | 474 kts | 130° |
| 2026-05-04 02:38 | -3.04401 | 109.31147 | 36947 ft | 475 kts | 130° |
| 2026-05-04 02:38 | -3.08712 | 109.36160 | 36946 ft | 476 kts | 130° |
| 2026-05-04 02:39 | -3.13035 | 109.41188 | 36948 ft | 476 kts | 130° |
| 2026-05-04 02:39 | -3.17356 | 109.46214 | 36948 ft | 476 kts | 130° |
| 2026-05-04 02:40 | -3.21675 | 109.51239 | 36948 ft | 476 kts | 130° |
| 2026-05-04 02:40 | -3.25961 | 109.56226 | 36946 ft | 475 kts | 130° |
| 2026-05-04 02:41 | -3.30271 | 109.61241 | 36931 ft | 475 kts | 130° |
| 2026-05-04 02:41 | -3.34605 | 109.66284 | 36946 ft | 474 kts | 130° |
| 2026-05-04 02:42 | -3.38903 | 109.71288 | 36952 ft | 474 kts | 130° |
| 2026-05-04 02:42 | -3.43169 | 109.76255 | 36947 ft | 474 kts | 130° |
| 2026-05-04 02:43 | -3.47463 | 109.81255 | 36927 ft | 474 kts | 130° |
| 2026-05-04 02:43 | -3.51760 | 109.86259 | 36948 ft | 474 kts | 130° |
| 2026-05-04 02:44 | -3.56056 | 109.91263 | 36947 ft | 474 kts | 130° |
| 2026-05-04 02:44 | -3.60362 | 109.96279 | 36948 ft | 475 kts | 130° |
| 2026-05-04 02:45 | -3.64667 | 110.01295 | 36946 ft | 475 kts | 130° |
| 2026-05-04 02:45 | -3.68974 | 110.06313 | 36946 ft | 475 kts | 130° |
| 2026-05-04 02:46 | -3.73280 | 110.11333 | 36945 ft | 475 kts | 130° |
| 2026-05-04 02:46 | -3.77588 | 110.16355 | 36943 ft | 475 kts | 130° |
| 2026-05-04 02:47 | -3.81894 | 110.21376 | 36946 ft | 475 kts | 130° |
| 2026-05-04 02:47 | -3.86202 | 110.26400 | 36946 ft | 475 kts | 130° |
| 2026-05-04 02:48 | -3.90511 | 110.31427 | 36945 ft | 476 kts | 130° |
| 2026-05-04 02:48 | -3.94821 | 110.36455 | 36943 ft | 476 kts | 130° |
| 2026-05-04 02:49 | -3.99058 | 110.41545 | 36943 ft | 476 kts | 127° |
| 2026-05-04 02:49 | -4.03075 | 110.46807 | 36947 ft | 476 kts | 127° |
| 2026-05-04 02:50 | -4.07075 | 110.52090 | 36945 ft | 476 kts | 127° |
| 2026-05-04 02:50 | -4.11104 | 110.57348 | 36946 ft | 476 kts | 127° |
| 2026-05-04 02:51 | -4.15156 | 110.62600 | 36948 ft | 476 kts | 127° |
| 2026-05-04 02:51 | -4.19210 | 110.67851 | 36947 ft | 476 kts | 127° |
| 2026-05-04 02:52 | -4.23262 | 110.73102 | 36949 ft | 477 kts | 127° |
| 2026-05-04 02:52 | -4.27314 | 110.78357 | 36946 ft | 477 kts | 127° |
| 2026-05-04 02:53 | -4.31340 | 110.83578 | 36952 ft | 476 kts | 127° |
| 2026-05-04 02:53 | -4.35392 | 110.88837 | 36950 ft | 477 kts | 127° |
| 2026-05-04 02:54 | -4.39447 | 110.94099 | 36950 ft | 477 kts | 127° |
| 2026-05-04 02:54 | -4.43501 | 110.99361 | 36950 ft | 477 kts | 127° |
| 2026-05-04 02:55 | -4.48896 | 111.06364 | 36949 ft | 477 kts | 127° |
| 2026-05-04 02:56 | -4.52948 | 111.11627 | 36948 ft | 477 kts | 127° |
| 2026-05-04 02:56 | -4.56999 | 111.16890 | 36951 ft | 477 kts | 127° |
| 2026-05-04 02:57 | -4.61049 | 111.22152 | 36948 ft | 476 kts | 127° |
| 2026-05-04 02:57 | -4.65107 | 111.27402 | 36943 ft | 476 kts | 127° |
| 2026-05-04 02:58 | -4.69171 | 111.32637 | 36944 ft | 476 kts | 127° |
| 2026-05-04 02:58 | -4.73238 | 111.37877 | 36952 ft | 476 kts | 127° |
| 2026-05-04 02:59 | -4.77298 | 111.43115 | 36948 ft | 476 kts | 127° |
| 2026-05-04 02:59 | -4.81356 | 111.48352 | 36946 ft | 475 kts | 127° |
| 2026-05-04 03:00 | -4.85412 | 111.53590 | 36950 ft | 475 kts | 127° |
| 2026-05-04 03:00 | -4.89470 | 111.58831 | 36948 ft | 476 kts | 127° |
| 2026-05-04 03:01 | -4.93528 | 111.64073 | 36955 ft | 476 kts | 127° |
| 2026-05-04 03:01 | -4.97590 | 111.69320 | 36947 ft | 477 kts | 126° |
| 2026-05-04 03:02 | -5.01658 | 111.74579 | 36943 ft | 477 kts | 127° |
| 2026-05-04 03:02 | -5.05731 | 111.79843 | 36948 ft | 478 kts | 127° |
| 2026-05-04 03:03 | -5.09817 | 111.85126 | 36951 ft | 480 kts | 127° |
| 2026-05-04 03:03 | -5.13916 | 111.90428 | 36947 ft | 482 kts | 126° |
| 2026-05-04 03:04 | -5.18026 | 111.95743 | 36946 ft | 483 kts | 126° |
| 2026-05-04 03:04 | -5.22145 | 112.01073 | 36945 ft | 484 kts | 126° |
| 2026-05-04 03:05 | -5.26239 | 112.06372 | 36947 ft | 484 kts | 127° |
| 2026-05-04 03:05 | -5.30391 | 112.11745 | 36953 ft | 484 kts | 126° |
| 2026-05-04 03:06 | -5.34485 | 112.17045 | 36950 ft | 483 kts | 126° |
| 2026-05-04 03:06 | -5.38599 | 112.22373 | 36949 ft | 483 kts | 126° |
| 2026-05-04 03:07 | -5.42705 | 112.27701 | 36950 ft | 482 kts | 126° |
| 2026-05-04 03:07 | -5.46802 | 112.33019 | 36947 ft | 481 kts | 127° |
| 2026-05-04 03:08 | -5.50909 | 112.38324 | 36947 ft | 481 kts | 126° |
| 2026-05-04 03:08 | -5.55006 | 112.43632 | 36931 ft | 481 kts | 126° |
| 2026-05-04 03:09 | -5.59108 | 112.48933 | 36930 ft | 481 kts | 127° |
| 2026-05-04 03:09 | -5.63205 | 112.54244 | 36951 ft | 482 kts | 127° |
| 2026-05-04 03:10 | -5.66492 | 112.58531 | 36950 ft | 483 kts | 127° |
| 2026-05-04 03:10 | -5.66754 | 112.58872 | 36950 ft | 483 kts | 127° |
| 2026-05-04 03:11 | -5.70868 | 112.64217 | 36947 ft | 484 kts | 127° |
| 2026-05-04 03:11 | -5.74988 | 112.69563 | 36948 ft | 484 kts | 127° |
| 2026-05-04 03:12 | -5.79111 | 112.74912 | 36931 ft | 485 kts | 127° |
| 2026-05-04 03:12 | -5.83233 | 112.80265 | 36928 ft | 485 kts | 127° |
| 2026-05-04 03:13 | -5.87361 | 112.85627 | 36946 ft | 485 kts | 127° |
| 2026-05-04 03:13 | -5.91488 | 112.90991 | 36951 ft | 486 kts | 127° |
| 2026-05-04 03:14 | -5.95620 | 112.96362 | 36951 ft | 486 kts | 127° |
| 2026-05-04 03:14 | -5.99729 | 113.01705 | 36948 ft | 486 kts | 127° |
| 2026-05-04 03:15 | -6.03866 | 113.07085 | 36944 ft | 487 kts | 127° |
| 2026-05-04 03:15 | -6.08003 | 113.12467 | 36930 ft | 487 kts | 127° |
| 2026-05-04 03:16 | -6.12137 | 113.17847 | 36940 ft | 486 kts | 127° |
| 2026-05-04 03:16 | -6.16269 | 113.23226 | 36937 ft | 486 kts | 127° |
| 2026-05-04 03:17 | -6.20393 | 113.28597 | 36925 ft | 485 kts | 127° |
| 2026-05-04 03:17 | -6.24688 | 113.33817 | 36920 ft | 485 kts | 134° |
| 2026-05-04 03:18 | -6.29817 | 113.38205 | 36930 ft | 485 kts | 144° |
| 2026-05-04 03:18 | -6.35327 | 113.42121 | 36930 ft | 486 kts | 144° |
| 2026-05-04 03:19 | -6.40849 | 113.46046 | 36907 ft | 486 kts | 144° |
| 2026-05-04 03:19 | -6.46353 | 113.50002 | 36927 ft | 486 kts | 144° |
| 2026-05-04 03:20 | -6.51849 | 113.53973 | 36929 ft | 487 kts | 144° |
| 2026-05-04 03:20 | -6.57348 | 113.57950 | 36908 ft | 487 kts | 144° |
| 2026-05-04 03:21 | -6.62810 | 113.61898 | 36904 ft | 487 kts | 144° |
| 2026-05-04 03:21 | -6.68305 | 113.65870 | 36927 ft | 486 kts | 144° |
| 2026-05-04 03:22 | -6.73796 | 113.69841 | 36929 ft | 486 kts | 144° |
| 2026-05-04 03:22 | -6.79284 | 113.73811 | 36913 ft | 486 kts | 144° |
| 2026-05-04 03:23 | -6.84761 | 113.77775 | 36930 ft | 485 kts | 144° |
| 2026-05-04 03:23 | -6.90257 | 113.81753 | 36939 ft | 491 kts | 144° |
| 2026-05-04 03:24 | -6.95863 | 113.85812 | 36930 ft | 502 kts | 144° |
| 2026-05-04 03:24 | -7.01555 | 113.89934 | 36913 ft | 505 kts | 144° |
| 2026-05-04 03:25 | -7.07262 | 113.94067 | 36914 ft | 505 kts | 144° |
| 2026-05-04 03:25 | -7.12966 | 113.98199 | 36912 ft | 505 kts | 144° |
| 2026-05-04 03:26 | -7.18660 | 114.02327 | 36914 ft | 504 kts | 144° |
| 2026-05-04 03:26 | -7.24339 | 114.06446 | 36915 ft | 502 kts | 144° |
| 2026-05-04 03:27 | -7.30004 | 114.10555 | 36908 ft | 501 kts | 144° |
| 2026-05-04 03:27 | -7.35661 | 114.14661 | 36929 ft | 501 kts | 144° |
| 2026-05-04 03:28 | -7.41320 | 114.18768 | 36930 ft | 502 kts | 144° |
| 2026-05-04 03:28 | -7.46980 | 114.22876 | 36911 ft | 502 kts | 145° |
| 2026-05-04 03:29 | -7.52657 | 114.26980 | 36933 ft | 502 kts | 145° |
| 2026-05-04 03:29 | -7.58328 | 114.31094 | 36931 ft | 502 kts | 144° |
| 2026-05-04 03:30 | -7.63993 | 114.35213 | 36921 ft | 503 kts | 145° |
| 2026-05-04 03:30 | -7.69665 | 114.39338 | 36941 ft | 503 kts | 146° |
| 2026-05-04 03:31 | -7.75331 | 114.43460 | 36934 ft | 502 kts | 146° |
| 2026-05-04 03:31 | -7.80992 | 114.47573 | 36928 ft | 501 kts | 146° |
| 2026-05-04 03:32 | -7.86645 | 114.51683 | 36940 ft | 500 kts | 146° |
| 2026-05-04 03:32 | -7.92286 | 114.55788 | 36928 ft | 500 kts | 145° |
| 2026-05-04 03:33 | -7.97924 | 114.59894 | 36928 ft | 499 kts | 145° |
| 2026-05-04 03:33 | -8.03515 | 114.63966 | 36937 ft | 499 kts | 146° |
| 2026-05-04 03:34 | -8.09142 | 114.68066 | 36941 ft | 499 kts | 145° |
| 2026-05-04 03:34 | -8.14767 | 114.72169 | 36938 ft | 499 kts | 145° |
| 2026-05-04 03:35 | -8.20391 | 114.76277 | 36938 ft | 499 kts | 145° |
| 2026-05-04 03:35 | -8.26023 | 114.80386 | 36947 ft | 499 kts | 145° |
| 2026-05-04 03:36 | -8.31646 | 114.84504 | 36964 ft | 500 kts | 144° |
| 2026-05-04 03:36 | -8.37266 | 114.88641 | 36946 ft | 500 kts | 145° |
| 2026-05-04 03:37 | -8.42908 | 114.92761 | 36944 ft | 501 kts | 145° |
| 2026-05-04 03:37 | -8.48553 | 114.96879 | 36951 ft | 501 kts | 145° |
| 2026-05-04 03:38 | -8.54204 | 115.01007 | 36951 ft | 501 kts | 145° |
| 2026-05-04 03:38 | -8.59846 | 115.05134 | 36940 ft | 500 kts | 146° |
| 2026-05-04 03:39 | -8.65480 | 115.09256 | 36942 ft | 500 kts | 146° |
| 2026-05-04 03:39 | -8.71112 | 115.13378 | 36940 ft | 499 kts | 145° |
| 2026-05-04 03:40 | -8.76636 | 115.17629 | 36943 ft | 500 kts | 139° |
| 2026-05-04 03:40 | -8.81735 | 115.22411 | 36936 ft | 500 kts | 138° |
| 2026-05-04 03:41 | -8.86796 | 115.27236 | 36941 ft | 500 kts | 138° |
| 2026-05-04 03:41 | -8.91876 | 115.32044 | 36944 ft | 500 kts | 139° |
| 2026-05-04 03:42 | -8.96940 | 115.36809 | 36952 ft | 501 kts | 139° |
| 2026-05-04 03:42 | -9.02045 | 115.41604 | 36944 ft | 501 kts | 139° |
| 2026-05-04 03:43 | -9.07159 | 115.46411 | 36946 ft | 502 kts | 139° |
| 2026-05-04 03:43 | -9.12271 | 115.51220 | 36948 ft | 502 kts | 139° |
| 2026-05-04 03:44 | -9.17388 | 115.56037 | 36944 ft | 503 kts | 139° |
| 2026-05-04 03:44 | -9.22509 | 115.60859 | 36947 ft | 503 kts | 139° |
| 2026-05-04 03:45 | -9.26766 | 115.64869 | 36950 ft | 503 kts | 139° |
| 2026-05-04 03:45 | -9.31890 | 115.69698 | 36945 ft | 503 kts | 139° |
| 2026-05-04 03:46 | -9.37013 | 115.74527 | 36946 ft | 503 kts | 139° |
| 2026-05-04 03:46 | -9.42137 | 115.79360 | 36943 ft | 503 kts | 139° |
| 2026-05-04 03:47 | -9.47258 | 115.84191 | 36944 ft | 503 kts | 139° |
| 2026-05-04 03:47 | -9.52378 | 115.89025 | 36945 ft | 503 kts | 139° |
| 2026-05-04 03:48 | -9.57496 | 115.93858 | 36942 ft | 503 kts | 139° |
| 2026-05-04 03:48 | -9.62616 | 115.98696 | 36946 ft | 503 kts | 139° |
| 2026-05-04 03:49 | -9.67735 | 116.03534 | 36948 ft | 503 kts | 139° |
| 2026-05-04 03:49 | -9.72852 | 116.08372 | 36946 ft | 503 kts | 139° |
| 2026-05-04 03:50 | -9.77967 | 116.13211 | 36944 ft | 503 kts | 139° |
| 2026-05-04 03:50 | -9.83082 | 116.18052 | 36940 ft | 503 kts | 139° |
| 2026-05-04 03:51 | -9.88196 | 116.22894 | 36940 ft | 503 kts | 139° |
| 2026-05-04 03:51 | -9.93308 | 116.27736 | 36945 ft | 503 kts | 139° |